Time;durP1;ratioP1;P1;durP2;ratioP2;P2;SDS_P1;SDS_P2;PMS_P1;PMS_P2;Temp;Humidity;BMP_temperature;BMP_pressure;BME280_temperature;BME280_humidity;BME280_pressure;Samples;Min_cycle;Max_cycle;Signal;HPM_P1;HPM_P2
2021/12/28 00:02:14;;;;;;;4.03;3.08;;;9.30;77.90;;;;;;5115458;27;20118;-74
2021/12/28 00:04:40;;;;;;;5.68;3.35;;;9.20;77.80;;;;;;5130846;27;20094;-74
2021/12/28 00:07:05;;;;;;;3.80;3.10;;;9.20;77.90;;;;;;5132643;27;20027;-74
2021/12/28 00:09:31;;;;;;;4.57;3.25;;;9.10;77.80;;;;;;5132269;27;20035;-74
2021/12/28 00:11:57;;;;;;;4.90;3.38;;;9.10;77.80;;;;;;5133135;27;20039;-74
2021/12/28 00:14:24;;;;;;;4.80;3.05;;;9.10;77.80;;;;;;5131952;27;20053;-74
2021/12/28 00:19:33;;;;;;;4.07;2.42;;;9.00;77.80;;;;;;5132301;27;20035;-74
2021/12/28 00:21:59;;;;;;;4.50;3.30;;;9.00;77.80;;;;;;5133104;27;20413;-74
2021/12/28 00:24:25;;;;;;;5.05;3.38;;;9.00;77.90;;;;;;5124733;28;20098;-73
2021/12/28 00:26:52;;;;;;;4.63;3.08;;;8.90;77.80;;;;;;5130043;27;20048;-73
2021/12/28 00:29:18;;;;;;;4.22;2.92;;;8.90;77.80;;;;;;5118526;27;20052;-74
2021/12/28 00:31:43;;;;;;;4.72;3.38;;;8.90;77.90;;;;;;5116833;28;20012;-74
2021/12/28 00:34:09;;;;;;;7.00;3.55;;;8.80;77.90;;;;;;5115963;28;20035;-73
2021/12/28 00:36:35;;;;;;;5.22;3.08;;;8.80;77.90;;;;;;5116045;28;20034;-74
2021/12/28 00:39:01;;;;;;;8.43;4.72;;;8.80;78.00;;;;;;5115063;28;20047;-74
2021/12/28 00:41:27;;;;;;;4.68;3.88;;;8.80;77.80;;;;;;5116829;28;20380;-74
2021/12/28 00:43:52;;;;;;;6.45;3.78;;;8.70;77.50;;;;;;5115713;28;20027;-74
2021/12/28 00:46:18;;;;;;;4.18;3.20;;;8.70;77.50;;;;;;5115680;28;20028;-74
2021/12/28 00:48:44;;;;;;;4.32;3.03;;;8.70;77.50;;;;;;5114732;28;20032;-74
2021/12/28 00:51:10;;;;;;;5.43;3.05;;;8.60;77.40;;;;;;5115562;28;20028;-74
2021/12/28 00:53:36;;;;;;;3.25;2.55;;;8.60;77.30;;;;;;5115880;28;20024;-74
2021/12/28 00:56:02;;;;;;;4.35;3.45;;;8.50;77.20;;;;;;5116479;28;20031;-74
2021/12/28 00:58:28;;;;;;;4.80;2.92;;;8.50;77.20;;;;;;5115263;28;20016;-74
2021/12/28 01:00:56;;;;;;;6.43;3.05;;;8.40;77.10;;;;;;5107000;28;20030;-74
2021/12/28 01:03:21;;;;;;;7.55;2.97;;;8.30;77.00;;;;;;5111304;28;20051;-73
2021/12/28 01:05:48;;;;;;;5.18;3.20;;;8.30;77.00;;;;;;5106640;28;20548;-73
2021/12/28 01:08:15;;;;;;;4.25;2.80;;;8.30;77.00;;;;;;5115701;28;20020;-74
2021/12/28 01:10:47;;;;;;;5.50;3.20;;;8.20;76.90;;;;;;5116251;28;20030;-74
2021/12/28 01:13:13;;;;;;;5.55;3.13;;;8.10;76.70;;;;;;5115319;28;20020;-74
2021/12/28 01:15:39;;;;;;;5.97;2.97;;;8.10;76.70;;;;;;5115279;28;20088;-74
2021/12/28 01:18:06;;;;;;;3.97;2.90;;;8.00;76.50;;;;;;5114680;28;20024;-74
2021/12/28 01:20:32;;;;;;;4.65;2.70;;;8.00;76.60;;;;;;5114298;28;20027;-74
2021/12/28 01:22:58;;;;;;;3.88;2.95;;;7.90;77.40;;;;;;5105895;28;20052;-74
2021/12/28 01:25:25;;;;;;;5.30;3.28;;;7.90;76.80;;;;;;5106275;28;20438;-74
2021/12/28 01:27:51;;;;;;;4.57;3.20;;;7.80;76.80;;;;;;5113888;28;20032;-74
2021/12/28 01:30:20;;;;;;;5.72;3.05;;;7.70;76.80;;;;;;5114629;28;20062;-74
2021/12/28 01:32:47;;;;;;;3.75;2.70;;;7.70;77.00;;;;;;5114430;28;20491;-74
2021/12/28 01:35:14;;;;;;;4.45;3.30;;;7.60;76.90;;;;;;5105247;28;20039;-74
2021/12/28 01:37:40;;;;;;;6.97;3.65;;;7.60;77.00;;;;;;5111003;28;20383;-74
2021/12/28 01:40:09;;;;;;;5.72;3.45;;;7.50;77.00;;;;;;5112337;28;20093;-74
2021/12/28 01:43:02;;;;;;;6.68;3.30;;;7.50;77.00;;;;;;5113477;28;20134;-74
2021/12/28 01:45:42;;;;;;;6.10;3.35;;;7.50;76.70;;;;;;5113157;28;20365;-74
2021/12/28 01:48:09;;;;;;;4.65;3.00;;;7.40;76.80;;;;;;5114085;28;20119;-74
2021/12/28 01:50:38;;;;;;;7.68;3.90;;;7.40;76.70;;;;;;5103039;28;20468;-74
2021/12/28 01:53:05;;;;;;;7.43;3.55;;;7.30;76.60;;;;;;5115759;27;20379;-73
2021/12/28 01:55:33;;;;;;;7.05;3.38;;;7.30;76.70;;;;;;5114577;28;20028;-74
2021/12/28 01:57:59;;;;;;;6.05;3.75;;;7.20;76.70;;;;;;5115399;28;20357;-74
2021/12/28 02:00:25;;;;;;;8.23;4.10;;;7.20;76.70;;;;;;5114211;28;20031;-74
2021/12/28 02:02:52;;;;;;;6.72;3.78;;;7.10;76.70;;;;;;5112409;28;20107;-74
2021/12/28 02:05:18;;;;;;;5.07;3.75;;;7.10;76.60;;;;;;5113692;28;20027;-74
2021/12/28 02:07:44;;;;;;;9.70;4.40;;;7.10;76.80;;;;;;5114352;28;20161;-74
2021/12/28 02:10:10;;;;;;;6.13;4.38;;;7.00;77.00;;;;;;5114119;28;20032;-74
2021/12/28 02:12:35;;;;;;;8.00;4.80;;;7.00;77.20;;;;;;5112982;28;20027;-74
2021/12/28 02:15:06;;;;;;;10.55;4.45;;;7.00;77.70;;;;;;5108825;28;20054;-74
2021/12/28 02:17:35;;;;;;;8.25;4.85;;;7.00;78.10;;;;;;5100523;28;20102;-74
2021/12/28 02:20:10;;;;;;;10.50;4.88;;;7.00;78.50;;;;;;5112316;28;20069;-74
2021/12/28 02:22:35;;;;;;;8.95;4.93;;;7.00;78.90;;;;;;5115173;28;20019;-74
2021/12/28 02:25:01;;;;;;;11.25;4.65;;;7.10;79.00;;;;;;5113285;28;20031;-74
2021/12/28 02:27:29;;;;;;;10.98;4.80;;;7.10;79.10;;;;;;5112913;28;20020;-74
2021/12/28 02:29:55;;;;;;;10.35;5.25;;;7.10;79.10;;;;;;5123728;27;20052;-74
2021/12/28 02:32:25;;;;;;;10.15;4.70;;;7.10;79.10;;;;;;5117087;27;20030;-73
2021/12/28 02:34:51;;;;;;;8.52;4.57;;;7.10;79.00;;;;;;5134441;27;20039;-74
2021/12/28 02:37:16;;;;;;;8.45;4.43;;;7.10;78.70;;;;;;5135042;27;20379;-74
2021/12/28 02:39:42;;;;;;;9.63;4.70;;;7.10;78.40;;;;;;5133859;27;20076;-74
2021/12/28 02:42:08;;;;;;;7.97;4.20;;;7.10;78.10;;;;;;5135194;27;20034;-74
2021/12/28 02:44:33;;;;;;;10.52;3.92;;;7.10;78.00;;;;;;5133571;27;20534;-74
2021/12/28 02:46:59;;;;;;;7.10;4.10;;;7.10;77.90;;;;;;5118394;27;20031;-73
2021/12/28 02:49:24;;;;;;;7.43;4.28;;;7.10;77.90;;;;;;5134106;27;20059;-73
2021/12/28 02:51:50;;;;;;;9.82;4.82;;;7.00;77.90;;;;;;5135110;27;20047;-73
2021/12/28 02:54:16;;;;;;;11.43;5.05;;;7.00;77.90;;;;;;5127391;27;20027;-73
2021/12/28 02:56:41;;;;;;;8.50;4.65;;;7.00;78.00;;;;;;5119720;27;20027;-73
2021/12/28 02:59:07;;;;;;;12.57;4.85;;;7.00;78.10;;;;;;5133454;27;20031;-73
2021/12/28 03:01:34;;;;;;;11.07;4.70;;;7.00;78.20;;;;;;5135249;27;20031;-73
2021/12/28 03:04:07;;;;;;;13.88;5.53;;;7.00;78.30;;;;;;5133437;27;20025;-73
2021/12/28 03:06:34;;;;;;;13.88;5.00;;;7.00;78.30;;;;;;5134907;27;20024;-74
2021/12/28 03:09:04;;;;;;;9.77;5.00;;;6.90;78.30;;;;;;5114893;27;20030;-73
2021/12/28 03:11:30;;;;;;;8.70;5.50;;;6.90;78.20;;;;;;5129821;27;20558;-73
2021/12/28 03:13:59;;;;;;;10.38;5.38;;;6.90;78.20;;;;;;5132943;27;20463;-73
2021/12/28 03:16:28;;;;;;;14.35;5.20;;;6.90;78.40;;;;;;5134718;27;20110;-73
2021/12/28 03:18:54;;;;;;;13.50;5.00;;;6.90;78.50;;;;;;5133091;27;20090;-73
2021/12/28 03:21:21;;;;;;;11.88;5.40;;;6.90;78.70;;;;;;5133695;27;20110;-73
2021/12/28 03:23:47;;;;;;;9.85;5.32;;;6.90;78.90;;;;;;5130102;27;20965;-73
2021/12/28 03:26:13;;;;;;;11.23;5.20;;;6.90;79.10;;;;;;5118763;27;20027;-73
2021/12/28 03:28:42;;;;;;;7.55;5.10;;;6.90;79.40;;;;;;5108939;27;20024;-73
2021/12/28 03:31:11;;;;;;;13.88;4.63;;;7.00;79.60;;;;;;5133240;27;20031;-74
2021/12/28 03:33:38;;;;;;;11.10;4.82;;;7.00;79.70;;;;;;5132063;27;20052;-73
2021/12/28 03:36:06;;;;;;;13.32;5.15;;;7.00;79.70;;;;;;5134355;27;20406;-74
2021/12/28 03:38:32;;;;;;;13.52;4.70;;;7.10;79.90;;;;;;5134174;27;20019;-74
2021/12/28 03:40:58;;;;;;;8.30;4.28;;;7.10;79.90;;;;;;5133152;27;20031;-74
2021/12/28 03:43:24;;;;;;;8.73;4.30;;;7.10;79.90;;;;;;5133712;27;20020;-73
2021/12/28 03:45:50;;;;;;;13.98;4.50;;;7.20;79.80;;;;;;5132282;27;20029;-73
2021/12/28 03:48:16;;;;;;;9.95;4.70;;;7.20;79.60;;;;;;5133885;27;20386;-73
2021/12/28 03:50:42;;;;;;;11.35;5.30;;;7.20;79.40;;;;;;5132961;27;20526;-74
2021/12/28 03:53:08;;;;;;;10.88;4.95;;;7.20;79.40;;;;;;5133960;27;20095;-74
2021/12/28 03:55:35;;;;;;;7.47;4.43;;;7.20;79.20;;;;;;5132638;27;20388;-74
2021/12/28 03:58:02;;;;;;;9.38;5.05;;;7.20;79.00;;;;;;5133801;27;20065;-74
2021/12/28 04:00:32;;;;;;;9.60;4.90;;;7.20;78.80;;;;;;5132405;27;20030;-73
2021/12/28 04:02:58;;;;;;;6.85;4.35;;;7.20;78.70;;;;;;5113024;28;20102;-74
2021/12/28 04:05:23;;;;;;;6.70;4.35;;;7.20;78.60;;;;;;5118345;27;20139;-74
2021/12/28 04:07:49;;;;;;;6.93;4.20;;;7.20;78.30;;;;;;5133361;27;20076;-74
2021/12/28 04:10:16;;;;;;;10.43;4.20;;;7.20;78.20;;;;;;5131112;27;20114;-73
2021/12/28 04:12:43;;;;;;;9.40;4.15;;;7.10;78.10;;;;;;5133572;27;20054;-73
2021/12/28 04:15:12;;;;;;;9.40;4.43;;;7.10;78.10;;;;;;5114316;27;20096;-74
2021/12/28 04:17:38;;;;;;;12.95;4.80;;;7.10;78.10;;;;;;5115525;28;20482;-74
2021/12/28 04:20:08;;;;;;;11.75;4.93;;;7.10;78.20;;;;;;5131491;27;20110;-73
2021/12/28 04:22:33;;;;;;;7.78;4.60;;;7.00;78.30;;;;;;5133403;27;20076;-73
2021/12/28 04:24:59;;;;;;;8.52;4.07;;;7.00;78.40;;;;;;5114101;28;20039;-74
2021/12/28 04:27:25;;;;;;;9.15;4.22;;;7.00;78.50;;;;;;5106748;28;20020;-73
2021/12/28 04:29:50;;;;;;;6.30;4.07;;;7.00;78.50;;;;;;5128516;28;20043;-73
2021/12/28 04:32:16;;;;;;;8.30;4.53;;;7.00;78.60;;;;;;5115125;28;20023;-74
2021/12/28 04:34:42;;;;;;;7.18;4.63;;;7.00;78.70;;;;;;5132373;28;20031;-73
2021/12/28 04:37:08;;;;;;;8.63;5.10;;;7.00;78.80;;;;;;5133224;27;20030;-73
2021/12/28 04:39:34;;;;;;;9.02;4.38;;;7.00;78.90;;;;;;5131457;28;20032;-74
2021/12/28 04:41:59;;;;;;;9.52;4.38;;;7.00;78.90;;;;;;5132716;28;20543;-73
2021/12/28 04:44:25;;;;;;;8.38;4.72;;;7.00;78.80;;;;;;5125909;28;20030;-73
2021/12/28 04:46:53;;;;;;;8.30;4.97;;;7.00;78.70;;;;;;5131082;28;20019;-73
2021/12/28 04:49:21;;;;;;;6.25;4.38;;;7.00;78.70;;;;;;5113679;28;20035;-73
2021/12/28 04:51:47;;;;;;;9.45;4.75;;;7.00;78.70;;;;;;5133526;28;20019;-73
2021/12/28 04:54:14;;;;;;;7.80;4.22;;;6.90;78.80;;;;;;5131932;28;20031;-73
2021/12/28 04:56:40;;;;;;;9.68;4.25;;;7.00;78.90;;;;;;5133407;28;20102;-73
2021/12/28 04:59:06;;;;;;;7.47;4.25;;;7.00;78.90;;;;;;5114517;28;20118;-73
2021/12/28 05:01:33;;;;;;;12.45;4.65;;;7.00;78.90;;;;;;5132423;28;20531;-73
2021/12/28 05:03:58;;;;;;;7.95;4.78;;;7.00;79.00;;;;;;5132638;27;20029;-73
2021/12/28 05:06:24;;;;;;;7.57;4.63;;;7.00;79.00;;;;;;5114083;28;20027;-73
2021/12/28 05:08:50;;;;;;;9.93;4.45;;;7.00;79.10;;;;;;5132883;28;20031;-73
2021/12/28 05:11:15;;;;;;;9.48;4.75;;;7.00;79.10;;;;;;5113401;28;20030;-73
2021/12/28 05:13:41;;;;;;;8.75;4.32;;;7.00;79.10;;;;;;5114588;27;20095;-73
2021/12/28 05:16:10;;;;;;;6.97;4.57;;;7.00;79.20;;;;;;5134880;27;20070;-73
2021/12/28 05:18:35;;;;;;;10.50;4.72;;;7.10;79.40;;;;;;5136258;27;20030;-73
2021/12/28 05:21:01;;;;;;;8.98;4.68;;;7.10;79.40;;;;;;5120576;27;20032;-73
2021/12/28 05:23:27;;;;;;;10.52;4.53;;;7.10;79.40;;;;;;5130858;27;20502;-73
2021/12/28 05:25:52;;;;;;;8.40;4.75;;;7.20;79.50;;;;;;5117657;27;20055;-73
2021/12/28 05:28:18;;;;;;;8.35;4.90;;;7.20;79.50;;;;;;5120570;27;20114;-73
2021/12/28 05:30:44;;;;;;;7.70;4.80;;;7.20;79.50;;;;;;5125938;27;20042;-73
2021/12/28 05:33:09;;;;;;;14.25;5.80;;;7.30;79.60;;;;;;5135994;27;20169;-74
2021/12/28 05:35:35;;;;;;;10.38;5.53;;;7.30;79.60;;;;;;5135352;27;20039;-74
2021/12/28 05:38:01;;;;;;;7.18;4.97;;;7.30;79.60;;;;;;5129659;27;20471;-74
2021/12/28 05:40:26;;;;;;;8.80;5.40;;;7.40;79.70;;;;;;5136041;27;20077;-73
2021/12/28 05:42:52;;;;;;;8.77;5.72;;;7.40;79.70;;;;;;5135188;27;20112;-74
2021/12/28 05:45:18;;;;;;;9.15;5.95;;;7.40;79.70;;;;;;5117816;27;20028;-73
2021/12/28 05:47:43;;;;;;;8.18;5.75;;;7.40;79.70;;;;;;5134116;27;20059;-73
2021/12/28 05:50:10;;;;;;;15.50;6.45;;;7.50;79.80;;;;;;5136544;27;20375;-74
2021/12/28 05:52:36;;;;;;;10.77;6.10;;;7.50;79.60;;;;;;5133252;27;20027;-73
2021/12/28 05:55:03;;;;;;;9.32;5.55;;;7.50;79.70;;;;;;5136156;27;20035;-73
2021/12/28 05:57:30;;;;;;;7.93;5.85;;;7.50;79.80;;;;;;5135246;27;20099;-74
2021/12/28 05:59:56;;;;;;;10.55;5.82;;;7.60;79.90;;;;;;5128316;27;20019;-73
2021/12/28 06:02:22;;;;;;;11.88;7.07;;;7.60;79.90;;;;;;5131749;27;20505;-73
2021/12/28 06:04:47;;;;;;;25.63;10.73;;;7.60;79.90;;;;;;5136075;27;20027;-73
2021/12/28 06:07:13;;;;;;;17.17;8.38;;;7.60;79.90;;;;;;5134625;27;20027;-73
2021/12/28 06:09:39;;;;;;;16.50;8.00;;;7.70;79.80;;;;;;5136103;27;20110;-74
2021/12/28 06:12:06;;;;;;;17.20;8.23;;;7.70;79.80;;;;;;5133857;27;20072;-73
2021/12/28 06:14:32;;;;;;;15.77;7.32;;;7.70;79.70;;;;;;5134897;27;20039;-73
2021/12/28 06:16:58;;;;;;;15.20;8.43;;;7.70;79.60;;;;;;5134505;27;20083;-73
2021/12/28 06:19:24;;;;;;;14.98;7.20;;;7.80;79.60;;;;;;5135734;27;20031;-74
2021/12/28 06:21:50;;;;;;;11.55;6.78;;;7.80;79.70;;;;;;5117035;27;20061;-73
2021/12/28 06:24:15;;;;;;;16.20;7.15;;;7.80;79.70;;;;;;5134692;27;20034;-74
2021/12/28 06:26:41;;;;;;;9.60;6.00;;;7.80;79.70;;;;;;5131943;27;20846;-74
2021/12/28 06:29:08;;;;;;;9.55;5.82;;;7.80;79.60;;;;;;5119331;27;20764;-73
2021/12/28 06:31:34;;;;;;;7.75;5.90;;;7.80;79.50;;;;;;5134840;27;20050;-73
2021/12/28 06:34:02;;;;;;;12.85;5.93;;;7.80;79.40;;;;;;5134410;27;20135;-73
2021/12/28 06:36:28;;;;;;;11.00;5.85;;;7.80;79.30;;;;;;5135515;27;20037;-73
2021/12/28 06:38:54;;;;;;;10.13;6.18;;;7.80;79.40;;;;;;5133965;27;20060;-73
2021/12/28 06:41:21;;;;;;;7.85;5.05;;;7.80;79.50;;;;;;5123892;27;20027;-73
2021/12/28 06:43:48;;;;;;;8.43;5.82;;;7.80;79.40;;;;;;5126419;27;20031;-73
2021/12/28 06:46:14;;;;;;;12.75;5.38;;;7.80;79.40;;;;;;5134886;27;20027;-73
2021/12/28 06:48:40;;;;;;;8.27;5.15;;;7.80;79.40;;;;;;5133638;27;20725;-73
2021/12/28 06:51:07;;;;;;;9.57;5.72;;;7.80;79.40;;;;;;5134902;27;20483;-73
2021/12/28 06:53:33;;;;;;;7.53;4.95;;;7.90;79.40;;;;;;5133666;27;20088;-73
2021/12/28 06:55:59;;;;;;;7.75;5.25;;;7.90;79.40;;;;;;5116563;27;20039;-74
2021/12/28 06:58:25;;;;;;;10.60;6.05;;;7.90;79.30;;;;;;5135309;27;20022;-73
2021/12/28 07:00:51;;;;;;;14.85;6.13;;;7.80;79.30;;;;;;5114519;27;20785;-74
2021/12/28 07:03:16;;;;;;;6.32;5.28;;;7.90;79.30;;;;;;5133219;27;20463;-73
2021/12/28 07:05:42;;;;;;;7.68;5.43;;;7.90;79.40;;;;;;5133199;27;20023;-73
2021/12/28 07:08:08;;;;;;;8.88;5.50;;;7.90;79.40;;;;;;5133853;27;20019;-73
2021/12/28 07:10:33;;;;;;;8.60;5.30;;;7.90;79.40;;;;;;5126679;27;20047;-73
2021/12/28 07:12:59;;;;;;;9.27;5.32;;;7.90;79.40;;;;;;5133047;27;20227;-73
2021/12/28 07:15:25;;;;;;;6.72;4.28;;;7.90;79.40;;;;;;5113726;27;20042;-73
2021/12/28 07:17:51;;;;;;;9.57;4.53;;;7.90;79.40;;;;;;5106724;27;20027;-73
2021/12/28 07:20:17;;;;;;;7.72;4.60;;;7.90;79.30;;;;;;5131179;27;20509;-73
2021/12/28 07:22:43;;;;;;;7.00;4.05;;;7.90;79.30;;;;;;5133731;27;20024;-73
2021/12/28 07:25:10;;;;;;;6.10;3.60;;;7.90;79.30;;;;;;5134001;27;20038;-73
2021/12/28 07:27:37;;;;;;;5.90;3.60;;;7.90;79.40;;;;;;5123226;27;20027;-73
2021/12/28 07:30:06;;;;;;;5.30;3.58;;;7.90;79.30;;;;;;5120059;27;20043;-73
2021/12/28 07:32:33;;;;;;;5.32;3.35;;;7.90;79.30;;;;;;5133169;27;20023;-73
2021/12/28 07:34:59;;;;;;;7.25;3.60;;;8.00;79.40;;;;;;5133970;27;20035;-73
2021/12/28 07:37:24;;;;;;;5.78;2.95;;;7.90;79.40;;;;;;5132129;27;20030;-73
2021/12/28 07:39:50;;;;;;;8.90;3.40;;;7.90;79.40;;;;;;5122908;27;20042;-73
2021/12/28 07:42:20;;;;;;;5.32;3.60;;;7.90;79.40;;;;;;5114523;27;20023;-73
2021/12/28 07:44:46;;;;;;;5.93;3.47;;;7.90;79.40;;;;;;5133955;27;20092;-73
2021/12/28 07:47:12;;;;;;;7.38;3.20;;;8.00;79.50;;;;;;5132694;27;20023;-73
2021/12/28 07:49:37;;;;;;;6.05;2.92;;;7.90;79.40;;;;;;5133847;27;20023;-73
2021/12/28 07:52:04;;;;;;;5.10;3.30;;;7.90;79.40;;;;;;5132556;27;20535;-73
2021/12/28 07:54:29;;;;;;;5.90;2.75;;;7.90;79.40;;;;;;5115428;27;20039;-73
2021/12/28 07:56:55;;;;;;;3.85;2.60;;;7.90;79.40;;;;;;5110985;27;20030;-73
2021/12/28 07:59:21;;;;;;;5.78;2.80;;;7.90;80.30;;;;;;5127329;27;20058;-73
2021/12/28 08:01:46;;;;;;;4.68;2.70;;;7.90;79.50;;;;;;5115551;27;20023;-73
2021/12/28 08:04:12;;;;;;;5.88;2.55;;;7.90;79.70;;;;;;5107903;27;20360;-73
2021/12/28 08:06:38;;;;;;;10.23;3.45;;;7.90;79.90;;;;;;5133879;27;20456;-73
2021/12/28 08:09:04;;;;;;;6.78;3.95;;;8.00;79.80;;;;;;5114781;27;20031;-72
2021/12/28 08:11:29;;;;;;;4.50;2.63;;;8.00;80.00;;;;;;5113107;28;20156;-73
2021/12/28 08:13:55;;;;;;;3.85;2.13;;;8.00;80.10;;;;;;5130834;27;20075;-73
2021/12/28 08:16:21;;;;;;;4.03;2.40;;;8.00;80.10;;;;;;5127838;27;20031;-73
2021/12/28 08:18:47;;;;;;;6.43;2.35;;;8.00;80.20;;;;;;5103103;28;20032;-73
2021/12/28 08:21:12;;;;;;;3.03;2.03;;;8.10;80.10;;;;;;5120296;28;20361;-73
2021/12/28 08:23:38;;;;;;;3.03;2.20;;;8.10;80.20;;;;;;5119713;27;20122;-72
2021/12/28 08:26:04;;;;;;;3.85;1.83;;;8.10;80.30;;;;;;5115252;28;20367;-73
2021/12/28 08:28:30;;;;;;;3.08;1.67;;;8.20;80.40;;;;;;5126832;28;20038;-72
2021/12/28 08:30:56;;;;;;;3.40;1.83;;;8.20;80.40;;;;;;5114019;28;20520;-73
2021/12/28 08:33:23;;;;;;;3.42;1.75;;;8.20;80.50;;;;;;5131531;27;20030;-73
2021/12/28 08:35:49;;;;;;;3.97;1.80;;;8.30;80.60;;;;;;5122551;28;20378;-73
2021/12/28 08:38:15;;;;;;;3.47;1.33;;;8.30;80.60;;;;;;5132193;28;20530;-73
2021/12/28 08:40:42;;;;;;;2.35;1.50;;;8.40;80.70;;;;;;5133195;28;20030;-73
2021/12/28 08:43:09;;;;;;;3.55;1.55;;;8.40;80.50;;;;;;5130296;27;20450;-72
2021/12/28 08:45:35;;;;;;;3.88;1.67;;;8.40;80.50;;;;;;5129717;28;20379;-73
2021/12/28 08:48:02;;;;;;;4.15;1.70;;;8.50;80.50;;;;;;5130776;28;20052;-73
2021/12/28 08:50:28;;;;;;;3.15;1.50;;;8.60;80.60;;;;;;5132132;27;20034;-72
2021/12/28 08:52:54;;;;;;;5.20;1.60;;;8.60;80.40;;;;;;5112984;27;20031;-73
2021/12/28 08:55:22;;;;;;;2.70;1.23;;;8.60;80.30;;;;;;5136145;27;20087;-73
2021/12/28 08:57:48;;;;;;;4.70;1.58;;;8.70;80.40;;;;;;5130394;27;20042;-73
2021/12/28 09:00:18;;;;;;;2.85;2.10;;;8.70;80.30;;;;;;5134900;27;20031;-72
2021/12/28 09:02:44;;;;;;;2.92;1.42;;;8.70;80.30;;;;;;5129420;27;20150;-73
2021/12/28 09:05:10;;;;;;;4.63;1.67;;;8.80;80.30;;;;;;5112555;28;20110;-74
2021/12/28 09:07:36;;;;;;;4.13;1.58;;;8.80;80.20;;;;;;5125086;27;20590;-73
2021/12/28 09:10:03;;;;;;;2.42;1.50;;;8.80;80.10;;;;;;5100824;28;20126;-73
2021/12/28 09:12:29;;;;;;;3.72;1.40;;;8.90;80.20;;;;;;5125553;27;20134;-73
2021/12/28 09:14:54;;;;;;;4.43;1.65;;;8.90;80.10;;;;;;5125019;27;20110;-73
2021/12/28 09:17:20;;;;;;;2.42;1.60;;;8.90;80.20;;;;;;5110762;27;20024;-73
2021/12/28 09:19:46;;;;;;;2.55;1.10;;;8.90;80.10;;;;;;5109506;27;20023;-73
2021/12/28 09:22:11;;;;;;;3.47;1.40;;;8.90;80.00;;;;;;5119074;27;20080;-73
2021/12/28 09:24:38;;;;;;;4.53;1.67;;;9.00;79.90;;;;;;5129399;27;20027;-73
2021/12/28 09:27:04;;;;;;;2.83;1.20;;;9.00;79.90;;;;;;5122343;27;20023;-73
2021/12/28 09:29:31;;;;;;;1.98;1.30;;;9.00;79.80;;;;;;5129236;27;20075;-73
2021/12/28 09:31:58;;;;;;;2.80;1.50;;;9.00;80.10;;;;;;5103504;28;20065;-73
2021/12/28 09:34:26;;;;;;;3.45;1.40;;;9.00;80.00;;;;;;5100429;27;20555;-73
2021/12/28 09:36:52;;;;;;;3.35;1.63;;;9.00;79.90;;;;;;5127340;27;20031;-74
2021/12/28 09:39:22;;;;;;;2.13;1.65;;;9.00;80.00;;;;;;5117670;27;20472;-73
2021/12/28 09:41:58;;;;;;;2.58;1.85;;;9.00;80.00;;;;;;5134839;27;20023;-73
2021/12/28 09:44:26;;;;;;;1.92;1.23;;;9.10;80.20;;;;;;5121839;27;20027;-73
2021/12/28 09:46:52;;;;;;;1.98;1.50;;;9.10;80.20;;;;;;5134444;27;20598;-73
2021/12/28 09:49:18;;;;;;;1.92;1.13;;;9.20;80.50;;;;;;5133654;27;20039;-73
2021/12/28 09:51:44;;;;;;;4.45;1.67;;;9.20;80.50;;;;;;5115964;27;20023;-73
2021/12/28 09:54:09;;;;;;;3.13;1.63;;;9.20;80.50;;;;;;5117690;27;20027;-73
2021/12/28 09:56:36;;;;;;;2.95;1.30;;;9.30;80.40;;;;;;5117467;27;20536;-73
2021/12/28 09:59:04;;;;;;;2.65;1.40;;;9.30;80.30;;;;;;5136267;27;20019;-73
2021/12/28 10:01:29;;;;;;;3.53;1.38;;;9.40;80.40;;;;;;5116599;27;20475;-74
2021/12/28 10:03:57;;;;;;;2.53;1.60;;;9.40;80.30;;;;;;5117933;27;20027;-73
2021/12/28 10:06:27;;;;;;;2.10;1.40;;;9.50;80.40;;;;;;5105546;27;20034;-73
2021/12/28 10:09:22;;;;;;;2.78;1.42;;;9.50;80.40;;;;;;5123550;27;20015;-74
2021/12/28 10:11:53;;;;;;;3.33;1.55;;;9.60;80.60;;;;;;5113960;27;20499;-72
2021/12/28 10:14:22;;;;;;;5.57;2.20;;;9.60;80.60;;;;;;5121086;27;20070;-73
2021/12/28 10:16:52;;;;;;;2.95;1.60;;;9.70;80.80;;;;;;5109086;27;20023;-73
2021/12/28 10:19:38;;;;;;;3.38;1.58;;;9.80;80.80;;;;;;5132753;27;20038;-73
2021/12/28 10:22:23;;;;;;;2.97;1.70;;;9.90;80.90;;;;;;5126609;27;20031;-73
2021/12/28 10:24:57;;;;;;;4.45;1.33;;;10.00;81.10;;;;;;5116039;27;20399;-75
2021/12/28 10:27:25;;;;;;;2.07;1.70;;;10.10;80.80;;;;;;5129945;27;20356;-74
2021/12/28 10:29:52;;;;;;;3.63;2.00;;;10.30;80.70;;;;;;5124734;27;20043;-73
2021/12/28 10:32:28;;;;;;;4.78;1.80;;;10.40;80.30;;;;;;5135711;27;20096;-74
2021/12/28 10:35:02;;;;;;;2.90;1.58;;;10.40;79.80;;;;;;5133505;27;20457;-74
2021/12/28 10:37:32;;;;;;;2.30;1.55;;;10.50;79.70;;;;;;5115041;27;20393;-74
2021/12/28 10:39:59;;;;;;;1.77;1.25;;;10.50;79.50;;;;;;5131300;27;20035;-74
2021/12/28 10:42:44;;;;;;;3.40;1.63;;;10.60;79.60;;;;;;5135675;27;20051;-75
2021/12/28 10:45:16;;;;;;;2.00;1.48;;;10.60;79.50;;;;;;5115547;27;20100;-74
2021/12/28 10:47:42;;;;;;;2.30;1.58;;;10.70;79.50;;;;;;5098135;27;20026;-74
2021/12/28 10:50:22;;;;;;;1.70;1.60;;;10.70;79.50;;;;;;5127468;27;20035;-74
2021/12/28 10:52:51;;;;;;;2.78;1.58;;;10.80;79.30;;;;;;5098215;27;21019;-73
2021/12/28 10:55:25;;;;;;;1.83;1.40;;;10.80;79.20;;;;;;5121218;27;20035;-73
2021/12/28 10:57:51;;;;;;;2.50;1.55;;;10.90;79.20;;;;;;5127526;27;20030;-73
2021/12/28 11:00:43;;;;;;;1.33;1.23;;;10.90;79.20;;;;;;5134667;27;20023;-73
2021/12/28 11:03:17;;;;;;;3.00;1.15;;;10.90;78.90;;;;;;5143331;27;20448;-73
2021/12/28 11:05:47;;;;;;;;;;;11.00;78.90;;;;;;5131616;27;20019;-73
2021/12/28 11:08:13;;;;;;;2.47;1.27;;;11.10;78.90;;;;;;5115485;27;19903;-73
2021/12/28 11:10:48;;;;;;;1.58;0.90;;;11.10;78.70;;;;;;5132312;27;20023;-73
2021/12/28 11:13:17;;;;;;;1.35;1.08;;;11.10;78.70;;;;;;5143122;27;20079;-73
2021/12/28 11:15:45;;;;;;;1.20;1.10;;;11.20;79.00;;;;;;5136704;27;20036;-73
2021/12/28 11:18:24;;;;;;;2.67;1.10;;;11.20;79.00;;;;;;5130170;27;20046;-73
2021/12/28 11:20:54;;;;;;;0.90;0.90;;;11.30;78.90;;;;;;5122637;27;20019;-74
2021/12/28 11:23:23;;;;;;;3.40;1.17;;;11.40;78.90;;;;;;5130040;27;20395;-74
2021/12/28 11:26:09;;;;;;;0.77;0.70;;;11.40;78.90;;;;;;5126727;27;20027;-73
2021/12/28 11:28:35;;;;;;;1.27;0.80;;;11.50;78.80;;;;;;5097487;27;20480;-73
2021/12/28 11:31:06;;;;;;;0.82;0.82;;;11.60;78.90;;;;;;5129115;27;20047;-73
2021/12/28 11:33:45;;;;;;;0.90;0.80;;;11.60;79.00;;;;;;5133981;27;20035;-72
2021/12/28 11:36:11;;;;;;;0.80;0.80;;;11.70;78.80;;;;;;5132604;27;20035;-73
2021/12/28 11:38:37;;;;;;;1.65;1.00;;;11.80;78.50;;;;;;5108849;27;20080;-73
2021/12/28 11:41:05;;;;;;;2.33;0.95;;;11.80;78.30;;;;;;5129035;27;20023;-72
2021/12/28 11:43:34;;;;;;;2.60;1.30;;;11.80;78.00;;;;;;5128361;27;20356;-72
2021/12/28 11:45:59;;;;;;;2.30;1.10;;;11.80;77.80;;;;;;5116025;27;20057;-72
2021/12/28 11:48:25;;;;;;;1.15;1.05;;;11.90;77.80;;;;;;5131588;27;20062;-72
2021/12/28 11:50:52;;;;;;;1.48;1.35;;;11.90;77.80;;;;;;5133903;27;20032;-72
2021/12/28 11:53:18;;;;;;;0.98;0.90;;;11.90;77.80;;;;;;5133946;27;20019;-73
2021/12/28 11:55:44;;;;;;;3.60;2.25;;;11.90;77.70;;;;;;5134035;27;20035;-72
2021/12/28 11:58:10;;;;;;;4.30;2.47;;;11.90;77.70;;;;;;5131406;27;20386;-72
2021/12/28 12:00:40;;;;;;;1.63;1.17;;;11.90;77.60;;;;;;5132809;27;20030;-72
2021/12/28 12:03:09;;;;;;;1.17;0.80;;;11.90;77.60;;;;;;5115309;27;20055;-72
2021/12/28 12:05:35;;;;;;;1.30;1.20;;;11.90;77.60;;;;;;5132699;27;20020;-72
2021/12/28 12:08:08;;;;;;;1.15;1.05;;;11.80;77.60;;;;;;5115525;27;20088;-72
2021/12/28 12:10:36;;;;;;;1.38;1.10;;;11.80;77.60;;;;;;5116652;27;20079;-72
2021/12/28 12:13:27;;;;;;;1.60;0.80;;;11.90;77.80;;;;;;5115282;27;20015;-72
2021/12/28 12:15:57;;;;;;;1.13;1.00;;;11.80;77.60;;;;;;5132738;27;20410;-72
2021/12/28 12:18:43;;;;;;;3.05;2.20;;;11.90;77.70;;;;;;5115294;27;20023;-72
2021/12/28 12:21:16;;;;;;;2.60;1.77;;;11.80;77.70;;;;;;5126993;27;20023;-72
2021/12/28 12:23:45;;;;;;;4.82;3.65;;;11.80;77.70;;;;;;5107355;28;20393;-72
2021/12/28 12:26:17;;;;;;;1.85;1.75;;;11.80;77.70;;;;;;5133572;27;20023;-72
2021/12/28 12:28:49;;;;;;;1.48;1.10;;;11.90;78.00;;;;;;5129993;27;20035;-71
2021/12/28 12:31:34;;;;;;;1.00;0.90;;;11.90;78.20;;;;;;5133406;28;20479;-72
2021/12/28 12:34:02;;;;;;;1.23;1.08;;;11.90;78.30;;;;;;5116220;28;20480;-72
2021/12/28 12:36:32;;;;;;;2.45;1.00;;;12.00;78.30;;;;;;5114666;28;20494;-72
2021/12/28 12:38:59;;;;;;;4.32;0.90;;;12.10;78.00;;;;;;5133316;28;20026;-72
2021/12/28 12:41:47;;;;;;;1.45;1.35;;;12.20;77.90;;;;;;5133123;27;20114;-72
2021/12/28 12:44:22;;;;;;;2.05;0.93;;;12.20;77.50;;;;;;5133318;28;20490;-72
2021/12/28 12:46:51;;;;;;;1.20;1.08;;;12.30;77.50;;;;;;5133582;28;20016;-72
2021/12/28 12:49:23;;;;;;;1.10;1.00;;;12.30;77.40;;;;;;5133168;27;20023;-72
2021/12/28 12:52:10;;;;;;;1.23;1.08;;;12.40;77.30;;;;;;5132896;28;20023;-72
2021/12/28 12:54:51;;;;;;;1.95;1.70;;;12.40;76.90;;;;;;5132482;27;20059;-72
2021/12/28 12:57:23;;;;;;;1.23;1.13;;;12.40;76.60;;;;;;5126558;28;20016;-72
2021/12/28 13:00:12;;;;;;;2.83;1.60;;;12.30;76.40;;;;;;5131893;27;20100;-72